Flight Track Log - Related Links

Times and Time Zones

All times are in EST time to prevent confusion due to time zone crossing. See the N125TV flight status page for this flight to view local times or setup timezone preferences in your user account.

Time Position Orientation Groundspeed Altitude Reporting Facility
EST Latitude Longitude Course Direction KTS MPH feet Rate Location/Type
Mon 10:08:24 PM 33.8283 -87.3772 200° South 143 165 3,800  Level Atlanta Center
Mon 10:08:54 PM 33.8072 -87.3864 200° South 151 174 4,300 989 Climbing Atlanta Center
Mon 10:09:55 PM 33.7653 -87.3947 189° South 151 174 5,300 942 Climbing Atlanta Center
Mon 10:10:55 PM 33.7231 -87.4106 197° South 157 181 6,200 898 Climbing Atlanta Center
Mon 10:12:02 PM 33.6789 -87.4214 192° South 162 186 7,200 891 Climbing Atlanta Center
Mon 10:13:03 PM 33.6347 -87.4344 194° South 163 188 8,100 425 Climbing Atlanta Center
Mon 10:14:09 PM 33.5758 -87.4497 192° South 186 214 8,100  Level Atlanta Center
Mon 10:15:10 PM 33.5253 -87.4650 194° South 195 224 8,100  Level Atlanta Center
Mon 10:16:11 PM 33.4706 -87.4803 193° South 190 219 8,100  Level Atlanta Center
Mon 10:16:41 PM 33.4433 -87.4842 187° South 188 216 8,100  Level Atlanta Center
Mon 10:17:41 PM 33.3972 -87.4972 193° South 195 224 8,100  Level Atlanta Center
Mon 10:18:41 PM 33.3467 -87.5128 194° South 200 230 8,100  Level Atlanta Center
Mon 10:19:41 PM 33.2939 -87.5281 194° South 200 230 8,100  Level Atlanta Center
Mon 10:20:41 PM 33.2436 -87.5408 192° South 200 230 8,100  Level Atlanta Center
Mon 10:21:41 PM 33.1931 -87.5564 194° South 200 230 8,100  Level Atlanta Center
Mon 10:22:41 PM 33.1425 -87.5692 192° South 195 224 8,100  Level Atlanta Center
Mon 10:23:41 PM 33.0897 -87.5892 198° South 195 224 8,100  Level Atlanta Center
Mon 10:24:41 PM 33.0394 -87.5994 190° South 195 224 8,100  Level Atlanta Center
Mon 10:25:41 PM 32.9931 -87.6100 191° South 195 224 8,100  Level Atlanta Center
Mon 10:26:41 PM 32.9406 -87.6278 196° South 195 224 8,100  Level Atlanta Center
Mon 10:27:41 PM 32.8922 -87.6406 193° South 189 217 8,100  Level Atlanta Center
Mon 10:28:41 PM 32.8394 -87.6558 194° South 189 217 8,100  Level Atlanta Center
Mon 10:29:41 PM 32.7911 -87.6711 195° South 184 212 8,100  Level Atlanta Center
Mon 10:30:41 PM 32.7364 -87.6836 191° South 184 212 8,100  Level Atlanta Center
Mon 10:31:41 PM 32.6881 -87.6989 195° South 184 212 8,100  Level Atlanta Center
Mon 10:32:41 PM 32.6375 -87.7142 194° South 184 212 8,100  Level Atlanta Center
Mon 10:33:41 PM 32.5892 -87.7244 190° South 184 212 8,100  Level Atlanta Center
Mon 10:34:41 PM 32.5383 -87.7419 196° South 184 212 8,100  Level Atlanta Center
Mon 10:35:41 PM 32.4858 -87.7544 191° South 184 212 8,100  Level Atlanta Center
Mon 10:36:41 PM 32.4331 -87.7794 202° Southwest 190 219 8,100  Level Atlanta Center
Mon 10:37:41 PM 32.3825 -87.7919 192° South 190 219 8,100  Level Atlanta Center
Mon 10:38:41 PM 32.3319 -87.8047 192° South 190 219 8,100  Level Atlanta Center
Mon 10:39:41 PM 32.2814 -87.8197 194° South 190 219 8,100  Level Atlanta Center
Mon 10:40:41 PM 32.2311 -87.8322 192° South 190 219 8,100  Level Atlanta Center
Mon 10:41:41 PM 32.1806 -87.8450 192° South 190 219 8,100  Level Atlanta Center
Mon 10:42:41 PM 32.1300 -87.8622 196° South 190 219 8,100  Level Atlanta Center
Mon 10:43:41 PM 32.0753 -87.8747 191° South 190 219 8,100  Level Atlanta Center
Mon 10:44:41 PM 32.0247 -87.8872 192° South 190 219 8,100  Level Atlanta Center
Mon 10:45:41 PM 31.9742 -87.9047 196° South 190 219 8,100  Level Atlanta Center
Mon 10:46:41 PM 31.9217 -87.9147 189° South 190 219 8,100  Level Atlanta Center
Mon 10:47:41 PM 31.8711 -87.9294 194° South 190 219 8,100  Level Atlanta Center
Mon 10:48:41 PM 31.8206 -87.9419 192° South 190 219 8,100 30 Level Atlanta Center
Mon 10:51:02 PM 31.6975 -87.9725 192° South 188 216 8,200 30 Climbing Houston Center
Mon 10:52:03 PM 31.6464 -87.9861 193° South 188 216 8,200  Level Houston Center
Mon 10:53:04 PM 31.5961 -88.0003 193° South 188 216 8,200  Level Houston Center
Mon 10:54:06 PM 31.5467 -88.0142 193° South 184 212 8,200  Level Houston Center
Mon 10:55:07 PM 31.4967 -88.0272 193° South 185 213 8,200  Level Houston Center
Mon 10:56:08 PM 31.4458 -88.0414 193° South 186 214 8,200  Level Houston Center
Mon 10:57:09 PM 31.3964 -88.0553 193° South 184 212 8,200  Level Houston Center
Mon 10:58:10 PM 31.3372 -88.0706 192° South 182 209 8,200  Level Houston Center
Mon 10:59:11 PM 31.2875 -88.0842 193° South 182 209 8,200 -344 Level Houston Center
Mon 11:00:12 PM 31.2353 -88.0983 193° South 188 216 7,500 -738 Descending Houston Center
Mon 11:01:13 PM 31.1803 -88.1147 194° South 198 228 6,700 -885 Descending Houston Center
Mon 11:02:14 PM 31.1261 -88.1278 192° South 199 229 5,700 -738 Descending Houston Center
Mon 11:03:15 PM 31.0725 -88.1428 193° South 197 227 5,200 -787 Descending Houston Center
Mon 11:04:16 PM 31.0244 -88.1564 194° South 183 211 4,100 -1,082 Descending Houston Center
Mon 11:05:17 PM 30.9803 -88.1872 211° Southwest 188 216 3,000 -885 Descending Houston Center
Mon 11:06:18 PM 30.9469 -88.2278 226° Southwest 176 203 2,300 -443 Descending Houston Center
Mon 11:07:19 PM 30.9147 -88.2669 226° Southwest 170 196 2,100 -98 Descending Houston Center
Mon 11:08:20 PM 30.8836 -88.3056 227° Southwest 166 191 2,100  Level Houston Center
Mon 11:09:21 PM 30.8564 -88.3389 226° Southwest 155 178 2,100  Level Houston Center
Mon 11:10:22 PM 30.8328 -88.3681 227° Southwest 139 160 2,100  Level Houston Center
Mon 11:11:22 PM 30.8056 -88.3508 151° Southeast 127 146 2,100  Level Houston Center
Mon 11:12:23 PM 30.7850 -88.3214 129° Southeast 122 140 2,100 -246 Level Houston Center
Mon 11:13:24 PM 30.7578 -88.2989 145° Southeast 120 138 1,600 -590 Descending Houston Center
Mon 11:14:25 PM 30.7294 -88.2756 145° Southeast 122 140 900 -639 Descending Houston Center
Mon 11:15:26 PM 30.7019 -88.2531 145° Southeast 123 142 300 -590 Descending Houston Center
Mon 11:17:00 PM 30.6914 -88.2428 139° Southeast  Level Estimated
Mon 11:24:00 PM 30.6914 -88.2428 139° Southeast  Level Estimated

Login

Don't have an account? Register now (free) for customized features, flight alerts, and more!